AirNav   Air Wisconsin pilot careers
 
 1541 users online  

4KY8 Shady Acres Airport
Shepherdsville, Kentucky, USA

GOING TO SHEPHERDSVILLE?


FAA INFORMATION EFFECTIVE 13 SEPTEMBER 2018

Location

FAA Identifier: 4KY8
Lat/Long: 37-56-45.0000N / 085-41-49.0000W
37-56.750000N / 085-41.816667W
37.9458333 / -85.6969444
(estimated)
Elevation: 450 ft. / 137 m (estimated)
Variation: 03W (2000)
From city: 2 miles S of SHEPHERDSVILLE, KY
Time zone: UTC -4 (UTC -5 during Standard Time)
Zip code: 40165

Airport Operations

Airport use: Private use. Permission required prior to landing
Activation date: 01/2001
Control tower: no
ARTCC: INDIANAPOLIS CENTER
FSS: LOUISVILLE FLIGHT SERVICE STATION
Attendance: UNATNDD
Wind indicator: yes
Segmented circle: no

Airport Communications

WX AWOS-3 at BRY (12 nm SE): 119.925 (502-348-1867)
WX ASOS at SDF (14 nm N): PHONE 502-367-1492
WX ASOS at LOU (17 nm N): 118.275 (502-473-0693)
WX AWOS-3 at EKX (19 nm SW): 121.025 (270-763-6433)

Nearby radio navigation aids

VOR radial/distance  VOR name  Freq  Var
IIUr210/11.0LOUISVILLE VORTAC114.8001E
FTKr081/13.2FORT KNOX VOR/DME109.6001W
BQMr189/17.1BOWMAN VOR/DME112.2004W
EWOr356/18.9NEW HOPE VOR/DME110.8001E
MYSr084/(26.1)MYSTIC VOR108.2001W
FFTr252/(39.9)FRANKFORT VOR109.4003W

 
NDB name  Hdg/Dist  Freq  Var  ID
LAANG198/12.341404WLK .-.. -.-
GODMAN096/13.339603WGOI --. --- ..

Airport Services

Runway Information

Runway 15/33

Dimensions: 2100 x 85 ft. / 640 x 26 m
Surface: turf, in good condition
RUNWAY 15  RUNWAY 33
Traffic pattern: leftleft

Airport Ownership and Management from official FAA records

Ownership: Privately-owned
Owner: RONALD A. PATRICK
3524 SOUTH PRESTON HWY
SHEPHERDSVILLE, KY 40165
Phone 502-921-2957
Manager: RONALD A. PATRICK
3524 SOUTH PRESTON HWY
SHEPHERDSVILLE, KY 40165
Phone 502-921-2957

Airport Operational Statistics

Aircraft based on the field: 3
Single engine airplanes: 2
Multi engine airplanes: 1
    

Additional Remarks

500 FT TOWER 1 NM NORTH & 510 FT TOWER 1.5 NM NORTHEAST OF ARPT.

Instrument Procedures

There are no published instrument procedures at 4KY8.

Some nearby airports with instrument procedures:

KBRY - Samuels Field Airport (12 nm SE)
KFTK - Godman Army Airfield (13 nm W)
KSDF - Louisville International Airport-Standiford Field (14 nm N)
KLOU - Bowman Field Airport (17 nm N)
KEKX - Addington Field Airport (19 nm SW)
 
Loc | Ops | Rwys | IFR | FBO | Links
Com | Nav | Svcs | Stats | Notes


 
Area around 4KY8 (Shady Acres Airport)
 
Road maps at: MapQuest Bing Google
 
Aerial photo
No photo
 
Sectional chart

 
Airport distance calculator
Flying to Shady Acres Airport? Find the distance to fly.

From to 4KY8

Sunrise and sunset
Times for 21-Sep-2018
 Local
(UTC-4)
 Zulu
(UTC)
Morning civil twilight07:0411:04
Sunrise07:3111:31
Sunset19:4123:41
Evening civil twilight20:0700:07

Current date and time
Zulu (UTC)  21-Sep-2018 16:14:49
Local (UTC-4)  21-Sep-2018 12:14:49
 
METAR
KBRY 
12nm SE 
211555Z AUTO 19009G17KT 10SM CLR 27/20 A3008 RMK AO1
KFTK 
13nm W 
211556Z AUTO 19012G18KT 10SM FEW038 30/22 A3007 RMK AO2 SLP178 T03030216 $
KSDF 
14nm N 
211556Z 21009KT 10SM FEW120 FEW250 30/22 A3005 RMK AO2 SLP169 T03000217
KEKX 
16nm SW 
211555Z AUTO 20011KT 10SM CLR 30/21 A3008 RMK AO2 T02970211
KLOU 
16nm N 
211553Z 20008G17KT 10SM CLR 31/23 A3006 RMK AO2 SLP171 T03060228
TAF
KFTK 
13nm W 
210900Z 2109/2215 20009KT 9999 FEW050 QNH2999INS TEMPO 2123/2201 27015G25KT 6000 -TSRA BKN035CB BECMG 2200/2201 33009KT 9999 SCT020 BKN150 QNH3002INS BECMG 2206/2207 36009KT 9999 BKN150 QNH3012INS BECMG 2214/2215 05012KT 9999 BKN100 QNH2996INS TX32/2121Z TN17/2209Z
KSDF 
14nm N 
211137Z 2112/2218 19012KT P6SM SCT080 BKN120 FM211300 21013G19KT P6SM BKN080 FM211800 24014G22KT P6SM VCTS BKN060CB TEMPO 2121/2124 VRB15G25KT 2SM TSRA FM220100 32011G16KT P6SM BKN060 FM220600 36012KT P6SM SCT023 OVC060
NOTAMs
Click for the latest NOTAMs
NOTAMs are issued by the DoD/FAA and will open in a separate window not controlled by AirNav.

 

 
 

Would you like to see your business listed on this page?

 If your business provides an interesting product or service to pilots, flight crews, aircraft, or users of the Shady Acres Airport, you should consider listing it here.  To start the listing process, click on the button below
 
Add a business
 

Other Pages about Shady Acres Airport

Update a link
 
Copyright © AirNav, LLC. All rights reserved. Privacy Policy  Contact